Boylston, MA

1:08 AM EST on December 18, 2014 (GMT -0500)
Tahanto Regional MHS | Change Station
CLOSE
Current Station
Personal Weather Station
Location: Boylston, MA
Elevation: 623 ft
Nearby Weather Stations

Elev 623 ft 42.37 °N, 71.72 °W | Updated 191 days ago

Snow
Snow
35 °F
Feels Like 29 °F
N
9
Wind Variable Wind from West
Gusts 20 mph

Today
High -- | Low -- °F
--% Chance of Precip.
Yesterday
High -- | Low -- °F
Precip. -- in
7:11 AM 4:15 PM
Waning Crescent, 17% visible
Pressure 29.73 in
Visibility 10.0 miles
Clouds Mostly Cloudy 5500 ft
Overcast 8000 ft
Windchill 29 °F
Dew Point 29 °F
Humidity 82%
Rainfall 0.02 in
Snow Depth Not available.
UV 0 out of 12
Pollen .10 out of 12
Air Quality Not available.
Flu Activity Not available.
METAR KFIT 180552Z AUTO 29009G19KT 10SM BKN055 OVC080 03/M02 A2972 RMK AO2 SLP067 T00331017 10067 20033 56009

More Conditions Fewer Conditions

Pressure 29.73 in
Visibility 10.0 miles
Clouds Mostly Cloudy 5500 ft
Overcast 8000 ft
Windchill 29 °F
Dew Point 29 °F
Humidity 82%
Rainfall 0.02 in
Snow Depth Not available.
UV 0 out of 12
Pollen .10 out of 12
Air Quality Not available.
Flu Activity Not available.
METAR KFIT 180552Z AUTO 29009G19KT 10SM BKN055 OVC080 03/M02 A2972 RMK AO2 SLP067 T00331017 10067 20033 56009

More Conditions Fewer Conditions

10-Day Weather Forecast

Almanac

Astronomy

Dec. 18, 2014 Rise Set
Actual Time
Civil Twilight
Nautical Twilight
Astronomical Twilight
Moon
Length of Visible Light
Length of Day
Tomorrow will be .
, % of the Moon is Illuminated

Today's Extremes

State Highs State Lows

Community

WunderPhotos

Upload Photos

1,778,896 photos uploaded!

WunderBlogs® & News

Nearby

Air Quality

  Air Quality AQ Index Pollutant
Not available.

Snow Depth

Station Depth Elevation

Earthquake Activity

City Distance Mag. Time & Date
Minimum magnitude displayed is 2.5.

Coastal Water Temperatures

Place Temperature

Nearby Weather Stations